Time;durP1;ratioP1;P1;durP2;ratioP2;P2;SDS_P1;SDS_P2;PMS_P1;PMS_P2;Temp;Humidity;BMP_temperature;BMP_pressure;BME280_temperature;BME280_humidity;BME280_pressure;Samples;Min_cycle;Max_cycle;Signal;HPM_P1;HPM_P2
2021/12/25 00:00:50;;;;;;;21.80;5.85;;;256.90;2252.80;;;;;;5079298;28;20058;-78
2021/12/25 00:03:16;;;;;;;20.90;9.35;;;256.90;2252.80;;;;;;5087395;28;20470;-81
2021/12/25 00:05:43;;;;;;;20.10;10.25;;;256.40;2252.80;;;;;;5081410;28;20048;-75
2021/12/25 00:08:09;;;;;;;20.00;11.52;;;256.30;2252.80;;;;;;5067077;28;20499;-79
2021/12/25 00:10:35;;;;;;;23.85;11.70;;;256.10;2252.80;;;;;;5091320;28;20028;-81
2021/12/25 00:13:01;;;;;;;22.48;10.95;;;256.10;2252.80;;;;;;5092045;28;20024;-82
2021/12/25 00:15:27;;;;;;;;;;;256.10;2252.80;;;;;;5092389;28;20032;-81
2021/12/25 00:17:52;;;;;;;19.27;10.65;;;256.40;2252.80;;;;;;5074256;28;19904;-81
2021/12/25 00:20:18;;;;;;;16.05;9.07;;;256.30;2252.80;;;;;;5091851;28;20042;-82
2021/12/25 00:22:44;;;;;;;;;;;256.50;2252.80;;;;;;5092126;28;20019;-80
2021/12/25 00:25:10;;;;;;;17.50;8.23;;;256.50;2252.80;;;;;;5092490;28;19994;-82
2021/12/25 00:27:45;;;;;;;11.40;5.90;;;256.60;2252.80;;;;;;5089144;28;20047;-77
2021/12/25 00:30:23;;;;;;;9.05;4.45;;;256.80;2252.80;;;;;;5092482;28;20056;-76
2021/12/25 00:32:54;;;;;;;13.43;4.65;;;256.90;2252.80;;;;;;5073653;28;20023;-87
2021/12/25 00:35:20;;;;;;;9.05;4.15;;;256.90;2252.80;;;;;;5092163;28;20459;-81
2021/12/25 00:37:46;;;;;;;9.10;3.88;;;256.70;2252.80;;;;;;5092224;28;20503;-79
2021/12/25 00:40:13;;;;;;;12.43;4.03;;;256.50;2252.80;;;;;;5092105;28;20032;-82
2021/12/25 00:42:39;;;;;;;7.75;4.30;;;256.60;2252.80;;;;;;5086280;28;20031;-81
2021/12/25 00:45:05;;;;;;;8.57;4.13;;;256.50;2252.80;;;;;;5084156;28;20024;-81
2021/12/25 00:47:31;;;;;;;9.65;4.47;;;256.50;2252.80;;;;;;5086795;28;20500;-80
2021/12/25 00:49:57;;;;;;;9.23;4.15;;;256.50;2252.80;;;;;;5081547;28;20044;-76
2021/12/25 00:52:22;;;;;;;11.05;3.75;;;256.80;2252.80;;;;;;5083313;28;20058;-80
2021/12/25 00:54:48;;;;;;;;;;;256.90;2252.80;;;;;;5072699;28;20062;-81
2021/12/25 00:57:14;;;;;;;11.70;4.00;;;281.70;2278.40;;;;;;5053913;28;19916;-82
2021/12/25 00:59:40;;;;;;;;;;;281.60;2278.40;;;;;;5072763;28;20028;-81
2021/12/25 01:02:05;;;;;;;6.85;3.70;;;281.60;2278.40;;;;;;5072339;28;19915;-80
2021/12/25 01:04:31;;;;;;;;;;;281.60;2278.40;;;;;;5073719;28;20028;-75
2021/12/25 01:06:57;;;;;;;8.50;4.07;;;281.60;2278.40;;;;;;5076075;28;20259;-82
2021/12/25 01:09:23;;;;;;;8.55;4.25;;;281.70;2278.40;;;;;;5076045;28;20031;-76
2021/12/25 01:11:50;;;;;;;10.13;4.60;;;281.70;2278.40;;;;;;5075925;28;20052;-81
2021/12/25 01:38:00;;;;;;;11.05;5.00;;;282.10;2278.40;;;;;;5075373;28;20392;-76
2021/12/25 01:48:48;;;;;;;8.05;4.50;;;282.10;2278.40;;;;;;5013679;28;20089;-80
2021/12/25 01:51:14;;;;;;;7.40;4.30;;;282.10;2278.40;;;;;;5013661;28;20026;-81
2021/12/25 01:53:39;;;;;;;;;;;282.10;2278.40;;;;;;5014231;28;20059;-81
2021/12/25 01:56:05;;;;;;;9.13;4.53;;;282.10;2278.40;;;;;;5013315;28;19988;-76
2021/12/25 01:58:33;;;;;;;;;;;282.10;2278.40;;;;;;5014203;28;20034;-76
2021/12/25 02:00:59;;;;;;;10.63;4.40;;;282.00;2278.40;;;;;;5013610;28;19913;-77
2021/12/25 02:03:30;;;;;;;12.30;4.32;;;282.00;2278.40;;;;;;5013312;28;20030;-76
2021/12/25 02:05:56;;;;;;;7.88;3.97;;;282.00;2278.40;;;;;;5013287;28;20033;-75
2021/12/25 02:08:24;;;;;;;9.20;4.65;;;282.00;2278.40;;;;;;5013302;28;20603;-81
2021/12/25 02:10:50;;;;;;;9.63;4.82;;;282.00;2278.40;;;;;;5013532;28;20029;-75
2021/12/25 02:13:17;;;;;;;9.80;4.60;;;282.10;2278.40;;;;;;5013070;28;20026;-80
2021/12/25 02:15:46;;;;;;;9.07;4.43;;;282.00;2278.40;;;;;;5013333;28;20498;-82
2021/12/25 02:21:00;;;;;;;9.68;4.63;;;282.10;2278.40;;;;;;5019902;28;20037;-82
2021/12/25 02:23:26;;;;;;;9.20;5.00;;;282.10;2278.40;;;;;;5057180;28;20028;-76
2021/12/25 02:25:55;;;;;;;10.27;4.93;;;282.10;2278.40;;;;;;5074695;28;20410;-79
2021/12/25 02:28:23;;;;;;;7.78;3.88;;;282.20;2278.40;;;;;;5074575;28;20063;-82
2021/12/25 02:30:53;;;;;;;9.30;4.20;;;282.20;2278.40;;;;;;5074687;28;20025;-76
2021/12/25 02:33:19;;;;;;;5.90;3.00;;;282.20;2278.40;;;;;;5074514;28;20108;-76
2021/12/25 02:35:45;;;;;;;11.70;4.40;;;282.20;2278.40;;;;;;5074483;28;20040;-82
2021/12/25 02:38:11;;;;;;;7.53;3.83;;;282.20;2278.40;;;;;;5056952;28;20162;-76
2021/12/25 02:40:37;;;;;;;6.22;3.75;;;282.40;2278.40;;;;;;5074397;28;20021;-76
2021/12/25 02:43:03;;;;;;;5.88;3.17;;;282.20;2278.40;;;;;;5074308;28;20058;-82
2021/12/25 02:45:29;;;;;;;;;;;282.10;2278.40;;;;;;5074729;28;20091;-76
2021/12/25 02:47:57;;;;;;;6.18;3.45;;;282.10;2278.40;;;;;;5073933;28;19916;-76
2021/12/25 02:50:30;;;;;;;5.72;3.50;;;282.10;2278.40;;;;;;5056726;28;20415;-82
2021/12/25 02:52:58;;;;;;;7.13;3.92;;;282.00;2278.40;;;;;;5073865;28;20040;-79
2021/12/25 02:55:25;;;;;;;15.05;5.93;;;282.00;2278.40;;;;;;5056369;28;20024;-81
2021/12/25 02:57:52;;;;;;;11.32;6.28;;;281.80;2278.40;;;;;;5073903;28;20020;-81
2021/12/25 03:00:28;;;;;;;12.38;7.47;;;256.90;2252.80;;;;;;5073917;28;20083;-79
2021/12/25 03:02:55;;;;;;;11.73;6.50;;;256.60;2252.80;;;;;;5074143;28;20026;-82
2021/12/25 03:05:21;;;;;;;11.25;6.53;;;256.40;2252.80;;;;;;5073839;28;20032;-82
2021/12/25 03:07:47;;;;;;;12.50;7.03;;;256.30;2252.80;;;;;;5073942;28;20047;-77
2021/12/25 03:10:13;;;;;;;;;;;256.40;2252.80;;;;;;5073998;28;20048;-79
2021/12/25 03:15:26;;;;;;;9.80;5.20;;;256.20;2252.80;;;;;;5073367;28;20331;-81
2021/12/25 03:17:52;;;;;;;8.43;5.00;;;256.20;2252.80;;;;;;5073594;28;20106;-81
2021/12/25 03:20:18;;;;;;;7.70;4.65;;;256.40;2252.80;;;;;;5073623;28;20027;-81
2021/12/25 03:22:43;;;;;;;8.93;4.50;;;256.60;2252.80;;;;;;5073653;28;20028;-76
2021/12/25 03:25:11;;;;;;;;;;;256.60;2252.80;;;;;;5056385;28;20029;-76
2021/12/25 03:27:38;;;;;;;7.18;3.92;;;256.50;2252.80;;;;;;5072511;28;20018;-77
2021/12/25 03:30:06;;;;;;;7.18;3.95;;;256.50;2252.80;;;;;;5073453;28;20405;-82
2021/12/25 03:32:32;;;;;;;7.22;4.05;;;256.60;2252.80;;;;;;5072728;28;20032;-82
2021/12/25 03:34:58;;;;;;;12.23;4.90;;;256.50;2252.80;;;;;;5055440;28;20031;-76
2021/12/25 03:37:24;;;;;;;8.43;4.85;;;256.60;2252.80;;;;;;5055659;28;20039;-81
2021/12/25 03:39:50;;;;;;;7.18;4.47;;;256.60;2252.80;;;;;;5073143;28;20103;-81
2021/12/25 03:42:15;;;;;;;8.77;4.75;;;256.60;2252.80;;;;;;5073270;28;20109;-79
2021/12/25 03:44:41;;;;;;;9.27;4.90;;;256.60;2252.80;;;;;;5055167;28;20126;-82
2021/12/25 03:47:21;;;;;;;;;;;256.80;2252.80;;;;;;5073654;28;20028;-82
2021/12/25 03:58:03;;;;;;;9.95;4.72;;;281.80;2278.40;;;;;;5073106;28;20213;-79
2021/12/25 04:00:31;;;;;;;7.22;4.13;;;281.80;2278.40;;;;;;5073081;28;20048;-86
2021/12/25 04:03:02;;;;;;;8.57;4.22;;;281.90;2278.40;;;;;;5054857;28;20039;-77
2021/12/25 04:05:32;;;;;;;8.68;4.63;;;281.80;2278.40;;;;;;5054561;28;20048;-74
2021/12/25 04:08:07;;;;;;;9.65;5.28;;;281.70;2278.40;;;;;;5055103;28;20050;-76
2021/12/25 04:10:38;;;;;;;11.32;5.57;;;281.70;2278.40;;;;;;5073092;28;20024;-82
2021/12/25 04:13:10;;;;;;;9.07;4.88;;;281.60;2278.40;;;;;;5072891;28;20073;-79
2021/12/25 04:15:36;;;;;;;11.60;5.50;;;256.90;2252.80;;;;;;5055294;28;20024;-81
2021/12/25 04:18:03;;;;;;;8.65;4.82;;;256.70;2252.80;;;;;;5072727;28;20377;-77
2021/12/25 04:20:29;;;;;;;10.05;5.65;;;256.60;2252.80;;;;;;5073141;28;20028;-77
2021/12/25 04:23:05;;;;;;;10.32;5.20;;;256.40;2252.80;;;;;;5054751;28;20074;-80
2021/12/25 04:25:34;;;;;;;8.65;4.53;;;256.60;2252.80;;;;;;5072634;28;20047;-82
2021/12/25 04:28:20;;;;;;;10.75;4.82;;;256.70;2252.80;;;;;;5072618;28;20046;-79
2021/12/25 04:50:10;;;;;;;12.25;5.10;;;281.70;2278.40;;;;;;5072512;28;20075;-77
2021/12/25 05:03:51;;;;;;;10.18;3.58;;;282.00;2278.40;;;;;;5093043;28;20027;-85
2021/12/25 05:06:16;;;;;;;8.13;4.38;;;281.90;2278.40;;;;;;5092613;28;20024;-76
2021/12/25 05:08:43;;;;;;;7.43;4.28;;;282.00;2278.40;;;;;;5092863;28;20484;-81
2021/12/25 05:11:08;;;;;;;8.45;3.78;;;282.00;2278.40;;;;;;5092541;28;20017;-80
2021/12/25 05:13:35;;;;;;;8.90;4.32;;;282.00;2278.40;;;;;;5074501;28;20043;-77
2021/12/25 05:16:02;;;;;;;10.48;4.90;;;282.00;2278.40;;;;;;5092401;28;20536;-75
2021/12/25 05:18:29;;;;;;;11.98;5.07;;;282.00;2278.40;;;;;;5092477;28;20476;-76
2021/12/25 05:20:54;;;;;;;8.98;4.68;;;282.00;2278.40;;;;;;5092042;28;20020;-85
2021/12/25 05:23:20;;;;;;;9.60;4.10;;;282.00;2278.40;;;;;;5092353;28;20134;-79
2021/12/25 05:25:48;;;;;;;8.95;4.40;;;282.10;2278.40;;;;;;5092301;28;20349;-80
2021/12/25 05:28:23;;;;;;;9.32;4.38;;;282.10;2278.40;;;;;;5092027;28;20044;-76
2021/12/25 05:30:49;;;;;;;11.88;5.18;;;282.10;2278.40;;;;;;5092197;28;20016;-78
2021/12/25 05:33:14;;;;;;;12.95;4.88;;;282.10;2278.40;;;;;;5092200;28;20020;-76
2021/12/25 05:35:40;;;;;;;12.45;4.95;;;282.20;2278.40;;;;;;5092500;28;20380;-76
2021/12/25 05:38:13;;;;;;;;;;;282.20;2278.40;;;;;;5092609;28;20107;-78
2021/12/25 05:40:39;;;;;;;6.43;3.33;;;282.20;2278.40;;;;;;5074423;28;20351;-85
2021/12/25 05:43:04;;;;;;;8.10;3.85;;;282.10;2278.40;;;;;;5091998;28;20020;-84
2021/12/25 05:45:31;;;;;;;;;;;282.20;2278.40;;;;;;5092666;28;20426;-84
2021/12/25 05:47:56;;;;;;;7.57;3.80;;;282.20;2278.40;;;;;;5074130;28;19916;-83
2021/12/25 05:50:22;;;;;;;4.40;2.78;;;282.20;2278.40;;;;;;5092090;28;20023;-85
2021/12/25 05:52:48;;;;;;;5.90;3.28;;;282.30;2278.40;;;;;;5095209;28;20095;-77
2021/12/25 05:55:13;;;;;;;;;;;282.20;2278.40;;;;;;5096272;28;20027;-76
2021/12/25 05:57:39;;;;;;;4.93;3.13;;;282.20;2278.40;;;;;;5095753;28;19929;-77
2021/12/25 06:00:06;;;;;;;;;;;282.20;2278.40;;;;;;5096220;28;20021;-85
2021/12/25 06:02:32;;;;;;;4.70;2.95;;;282.20;2278.40;;;;;;5095845;28;19911;-75
2021/12/25 06:04:57;;;;;;;;;;;282.10;2278.40;;;;;;5095894;28;20036;-76
2021/12/25 06:07:23;;;;;;;5.22;2.67;;;282.00;2278.40;;;;;;5095557;28;19904;-76
2021/12/25 06:09:48;;;;;;;;;;;282.00;2278.40;;;;;;5095618;28;20038;-85
2021/12/25 06:12:14;;;;;;;8.32;2.83;;;282.10;2278.40;;;;;;5077578;28;20339;-85
2021/12/25 06:14:43;;;;;;;6.68;2.97;;;282.00;2278.40;;;;;;5077436;28;20433;-85
2021/12/25 06:17:08;;;;;;;8.63;3.30;;;282.10;2278.40;;;;;;5095251;28;20020;-83
2021/12/25 06:19:34;;;;;;;7.90;3.42;;;282.10;2278.40;;;;;;5095349;28;20020;-83
2021/12/25 06:22:00;;;;;;;6.35;2.70;;;282.10;2278.40;;;;;;5076990;28;20039;-78
2021/12/25 06:24:27;;;;;;;;;;;282.10;2278.40;;;;;;5095796;28;20056;-79
2021/12/25 06:26:52;;;;;;;6.95;3.72;;;282.00;2278.40;;;;;;5094846;28;19916;-78
2021/12/25 06:29:19;;;;;;;;;;;282.00;2278.40;;;;;;5095703;28;20117;-85
2021/12/25 06:31:46;;;;;;;11.50;4.80;;;282.20;2278.40;;;;;;5094800;28;19903;-76
2021/12/25 06:34:11;;;;;;;9.88;6.32;;;281.80;2278.40;;;;;;5095121;28;20496;-76
2021/12/25 06:36:37;;;;;;;11.35;4.82;;;256.90;2252.80;;;;;;5094708;28;20098;-79
2021/12/25 06:39:04;;;;;;;;;;;256.60;2252.80;;;;;;5077527;28;20024;-86
2021/12/25 06:41:30;;;;;;;7.78;5.38;;;256.50;2252.80;;;;;;5094937;28;19949;-82
2021/12/25 06:43:55;;;;;;;;;;;256.30;2252.80;;;;;;5095269;28;20031;-85
2021/12/25 06:46:21;;;;;;;15.15;7.72;;;256.20;2252.80;;;;;;5094892;28;19911;-80
2021/12/25 06:48:47;;;;;;;;;;;256.10;2252.80;;;;;;5095066;28;20506;-77
2021/12/25 06:51:13;;;;;;;27.27;11.27;;;256.00;2252.80;;;;;;5065902;28;19909;-81
2021/12/25 06:53:39;;;;;;;17.02;7.55;;;256.00;2252.80;;;;;;5066658;28;20027;-79
2021/12/25 06:56:05;;;;;;;13.18;7.47;;;256.20;2252.80;;;;;;5063485;28;20115;-85
2021/12/25 06:58:31;;;;;;;13.38;7.00;;;256.50;2252.80;;;;;;5057732;28;20473;-76
2021/12/25 07:00:56;;;;;;;13.68;8.23;;;256.70;2252.80;;;;;;5066876;28;20040;-77
2021/12/25 07:03:22;;;;;;;13.48;8.30;;;256.80;2252.80;;;;;;5067915;28;20088;-82
2021/12/25 07:05:48;;;;;;;;;;;256.60;2252.80;;;;;;5074580;28;20055;-79
2021/12/25 07:08:13;;;;;;;10.27;5.63;;;256.80;2252.80;;;;;;5073758;28;19935;-81
2021/12/25 07:10:39;;;;;;;;;;;281.60;2278.40;;;;;;5074483;28;20021;-77
2021/12/25 07:13:07;;;;;;;15.65;8.43;;;281.70;2278.40;;;;;;5073880;28;19904;-78
2021/12/25 07:15:33;;;;;;;17.48;9.00;;;281.80;2278.40;;;;;;5073114;28;20016;-78
2021/12/25 07:17:58;;;;;;;15.07;7.50;;;281.80;2278.40;;;;;;5073692;28;20031;-77
2021/12/25 07:20:24;;;;;;;12.40;6.93;;;281.90;2278.40;;;;;;5073536;28;20555;-81
2021/12/25 07:22:50;;;;;;;;;;;281.90;2278.40;;;;;;5074276;28;20514;-82
2021/12/25 07:25:15;;;;;;;12.32;6.65;;;282.00;2278.40;;;;;;5072452;28;19908;-78
2021/12/25 07:27:41;;;;;;;;;;;282.00;2278.40;;;;;;5055594;28;20044;-75
2021/12/25 07:30:07;;;;;;;10.75;4.90;;;282.10;2278.40;;;;;;5073260;28;19920;-80
2021/12/25 07:32:33;;;;;;;10.05;4.47;;;282.20;2278.40;;;;;;5073580;28;20025;-77
2021/12/25 07:34:59;;;;;;;7.10;4.13;;;282.10;2278.40;;;;;;5073447;28;20150;-81
2021/12/25 07:37:25;;;;;;;8.50;5.03;;;281.90;2278.40;;;;;;5073408;28;20055;-77
2021/12/25 07:39:50;;;;;;;16.70;8.90;;;281.90;2278.40;;;;;;5073194;28;20095;-77
2021/12/25 07:42:16;;;;;;;;;;;281.80;2278.40;;;;;;5073387;28;20037;-80
2021/12/25 07:44:43;;;;;;;9.52;5.38;;;281.60;2278.40;;;;;;5055596;28;19908;-78
2021/12/25 07:47:11;;;;;;;8.35;5.22;;;281.80;2278.40;;;;;;5081373;28;20021;-77
2021/12/25 07:49:37;;;;;;;10.98;4.32;;;281.70;2278.40;;;;;;5073137;28;20124;-77
2021/12/25 07:52:05;;;;;;;6.35;3.50;;;281.80;2278.40;;;;;;5073508;28;20020;-85
2021/12/25 07:54:30;;;;;;;7.75;3.47;;;281.70;2278.40;;;;;;5058270;28;20082;-84
2021/12/25 07:56:56;;;;;;;13.13;4.82;;;281.90;2278.40;;;;;;5068917;28;20033;-79
2021/12/25 07:59:22;;;;;;;8.27;4.47;;;281.90;2278.40;;;;;;5055528;28;20032;-79
2021/12/25 08:01:48;;;;;;;;;;;282.00;2278.40;;;;;;5073325;28;20050;-80
2021/12/25 08:04:16;;;;;;;9.40;4.45;;;282.00;2278.40;;;;;;5073569;28;19927;-80
2021/12/25 08:06:42;;;;;;;12.40;4.60;;;282.00;2278.40;;;;;;5072941;28;20028;-79
2021/12/25 08:09:07;;;;;;;7.97;5.68;;;282.10;2278.40;;;;;;5072780;28;20055;-79
2021/12/25 08:11:34;;;;;;;11.68;5.80;;;282.10;2278.40;;;;;;5072980;28;20052;-79
2021/12/25 08:13:59;;;;;;;51.20;24.05;;;282.00;2278.40;;;;;;5054401;28;20098;-78
2021/12/25 08:16:25;;;;;;;30.27;15.05;;;281.90;2278.40;;;;;;5058198;28;20032;-82
2021/12/25 08:18:51;;;;;;;33.80;17.77;;;282.00;2278.40;;;;;;5092863;28;20028;-76
2021/12/25 08:21:16;;;;;;;;;;;281.90;2278.40;;;;;;5093392;28;20024;-78
2021/12/25 08:23:42;;;;;;;34.55;17.33;;;281.90;2278.40;;;;;;5074790;28;19912;-84
2021/12/25 08:26:09;;;;;;;30.33;15.55;;;281.70;2278.40;;;;;;5074764;28;20031;-81
2021/12/25 08:28:35;;;;;;;29.33;14.88;;;281.80;2278.40;;;;;;5092527;28;20548;-81
2021/12/25 08:31:01;;;;;;;29.85;15.55;;;281.70;2278.40;;;;;;5074787;28;20123;-81
2021/12/25 08:33:27;;;;;;;18.70;8.75;;;281.60;2278.40;;;;;;5092934;28;20055;-77
2021/12/25 08:35:53;;;;;;;19.58;11.98;;;281.80;2278.40;;;;;;5092643;28;20059;-80
2021/12/25 08:38:19;;;;;;;26.95;13.98;;;281.80;2278.40;;;;;;5074717;28;20024;-80
2021/12/25 08:40:45;;;;;;;27.67;14.68;;;281.90;2278.40;;;;;;5073909;28;20364;-80
2021/12/25 08:43:13;;;;;;;32.42;17.90;;;281.80;2278.40;;;;;;5074957;28;20455;-76
2021/12/25 08:45:44;;;;;;;24.70;11.55;;;281.80;2278.40;;;;;;5074592;28;20368;-79
2021/12/25 08:48:30;;;;;;;36.08;19.58;;;281.90;2278.40;;;;;;5074573;28;20555;-76
2021/12/25 08:50:58;;;;;;;41.27;21.27;;;281.90;2278.40;;;;;;5091994;28;20032;-78
2021/12/25 08:53:26;;;;;;;43.38;23.13;;;281.60;2278.40;;;;;;5092204;28;20261;-77
2021/12/25 08:55:54;;;;;;;55.40;31.80;;;281.60;2278.40;;;;;;5074512;28;20082;-77
2021/12/25 08:58:21;;;;;;;63.95;37.05;;;256.80;2252.80;;;;;;5074191;28;20093;-81
2021/12/25 09:00:50;;;;;;;49.60;28.65;;;256.70;2252.80;;;;;;5074564;28;20024;-76
2021/12/25 09:03:16;;;;;;;51.97;29.45;;;256.70;2252.80;;;;;;5074273;28;20058;-78
2021/12/25 09:05:42;;;;;;;29.80;18.13;;;256.60;2252.80;;;;;;5092718;28;20043;-81
2021/12/25 09:08:07;;;;;;;;;;;256.80;2252.80;;;;;;5092629;28;20426;-78
2021/12/25 09:10:35;;;;;;;30.50;17.17;;;256.70;2252.80;;;;;;5074394;28;20451;-80
2021/12/25 09:13:01;;;;;;;47.88;26.25;;;256.80;2252.80;;;;;;5074580;28;20035;-77
2021/12/25 09:15:27;;;;;;;39.30;21.80;;;256.80;2252.80;;;;;;5092195;28;20024;-79
2021/12/25 09:17:52;;;;;;;;;;;256.90;2252.80;;;;;;5092930;28;20052;-82
2021/12/25 09:20:21;;;;;;;21.90;12.50;;;256.90;2252.80;;;;;;5092303;28;19904;-78
2021/12/25 09:22:48;;;;;;;23.45;12.40;;;256.90;2252.80;;;;;;5092192;28;20031;-78
2021/12/25 09:25:15;;;;;;;30.08;16.58;;;256.90;2252.80;;;;;;5091995;28;20099;-76
2021/12/25 09:27:42;;;;;;;45.53;23.00;;;256.90;2252.80;;;;;;5094850;28;20058;-79
2021/12/25 09:30:09;;;;;;;39.25;23.00;;;256.90;2252.80;;;;;;5078024;28;20032;-80
2021/12/25 09:32:35;;;;;;;53.78;25.05;;;256.90;2252.80;;;;;;5077408;28;20107;-78
2021/12/25 09:35:02;;;;;;;49.97;23.88;;;281.60;2278.40;;;;;;5080004;28;20451;-76
2021/12/25 09:37:29;;;;;;;39.38;20.38;;;281.60;2278.40;;;;;;5075309;28;20060;-81
2021/12/25 09:39:56;;;;;;;54.78;25.13;;;281.70;2278.40;;;;;;5075909;28;20024;-81
2021/12/25 09:42:24;;;;;;;52.28;26.95;;;281.70;2278.40;;;;;;5075495;28;20020;-77
2021/12/25 09:44:54;;;;;;;41.10;22.58;;;282.00;2278.40;;;;;;5075673;28;20048;-81
2021/12/25 09:47:20;;;;;;;40.00;22.88;;;282.10;2278.40;;;;;;5075571;28;20024;-77
2021/12/25 09:49:46;;;;;;;28.30;16.60;;;282.20;2278.40;;;;;;5075544;28;20041;-79
2021/12/25 09:52:12;;;;;;;33.33;19.75;;;282.20;2278.40;;;;;;5057750;28;20025;-82
2021/12/25 09:54:38;;;;;;;21.55;12.40;;;282.40;2278.40;;;;;;5075264;28;20021;-77
2021/12/25 09:57:04;;;;;;;;;;;282.40;2278.40;;;;;;5075740;28;20075;-79
2021/12/25 09:59:29;;;;;;;27.98;16.70;;;282.50;2278.40;;;;;;5075166;28;20393;-76
2021/12/25 10:01:57;;;;;;;64.55;33.08;;;282.40;2278.40;;;;;;5057332;28;20020;-84
2021/12/25 10:04:31;;;;;;;56.47;31.33;;;282.20;2278.40;;;;;;5078731;28;20032;-79
2021/12/25 10:06:57;;;;;;;59.88;30.33;;;282.00;2278.40;;;;;;5054649;28;20814;-82
2021/12/25 10:09:25;;;;;;;61.78;32.30;;;281.90;2278.40;;;;;;5056688;28;20040;-77
2021/12/25 10:11:59;;;;;;;42.10;24.02;;;281.80;2278.40;;;;;;5080486;28;20016;-83
2021/12/25 10:14:25;;;;;;;34.28;20.17;;;281.90;2278.40;;;;;;5071329;28;20024;-76
2021/12/25 10:16:51;;;;;;;34.38;18.25;;;281.80;2278.40;;;;;;5058498;28;20073;-80
2021/12/25 10:19:22;;;;;;;33.88;17.70;;;281.80;2278.40;;;;;;5093578;28;20031;-76
2021/12/25 10:22:05;;;;;;;36.25;17.85;;;281.90;2278.40;;;;;;5094734;28;20098;-76
2021/12/25 10:24:37;;;;;;;46.50;24.05;;;281.90;2278.40;;;;;;5094986;28;20032;-77
2021/12/25 10:27:13;;;;;;;34.10;18.50;;;281.90;2278.40;;;;;;5075384;28;20040;-83
2021/12/25 10:29:39;;;;;;;29.50;16.10;;;282.00;2278.40;;;;;;5081651;28;20040;-84
2021/12/25 10:32:24;;;;;;;33.45;16.65;;;282.10;2278.40;;;;;;5084229;28;20048;-80
2021/12/25 10:34:51;;;;;;;28.77;16.02;;;282.10;2278.40;;;;;;5056999;28;20028;-78
2021/12/25 10:37:18;;;;;;;38.72;21.13;;;282.20;2278.40;;;;;;5083544;28;20024;-79
2021/12/25 10:39:46;;;;;;;30.67;16.80;;;282.30;2278.40;;;;;;5077568;28;20023;-80
2021/12/25 10:42:19;;;;;;;33.78;17.60;;;282.40;2278.40;;;;;;5085684;28;20099;-80
2021/12/25 10:44:46;;;;;;;32.40;18.55;;;282.30;2278.40;;;;;;5084648;28;20027;-80
2021/12/25 10:47:16;;;;;;;29.30;16.17;;;282.30;2278.40;;;;;;5084068;28;20081;-79
2021/12/25 10:49:56;;;;;;;27.90;15.48;;;282.30;2278.40;;;;;;5082218;28;20067;-81
2021/12/25 10:52:40;;;;;;;37.63;21.15;;;282.20;2278.40;;;;;;5081566;28;20020;-82
2021/12/25 10:55:21;;;;;;;29.15;16.65;;;282.30;2278.40;;;;;;5045378;28;20077;-77
2021/12/25 10:57:50;;;;;;;35.45;20.98;;;282.30;2278.40;;;;;;5073729;28;20028;-79
2021/12/25 11:00:22;;;;;;;35.00;24.73;;;282.20;2278.40;;;;;;5074332;28;20025;-78
2021/12/25 11:03:02;;;;;;;36.63;21.40;;;282.10;2278.40;;;;;;5056042;28;20036;-76
2021/12/25 11:05:47;;;;;;;37.70;21.80;;;282.20;2278.40;;;;;;5073873;28;20021;-76
2021/12/25 11:08:19;;;;;;;28.02;16.63;;;282.10;2278.40;;;;;;5073981;28;20473;-75
2021/12/25 11:11:10;;;;;;;28.70;17.70;;;282.20;2278.40;;;;;;5073833;28;20025;-83
2021/12/25 11:13:48;;;;;;;29.83;18.55;;;282.30;2278.40;;;;;;5071669;28;20047;-80
2021/12/25 11:16:22;;;;;;;27.40;16.25;;;282.20;2278.40;;;;;;5055274;28;20048;-77
2021/12/25 11:19:11;;;;;;;30.75;17.92;;;282.30;2278.40;;;;;;5084837;28;20047;-80
2021/12/25 11:21:43;;;;;;;25.42;14.60;;;282.40;2278.40;;;;;;5052721;28;20400;-76
2021/12/25 11:24:14;;;;;;;61.03;28.10;;;282.40;2278.40;;;;;;5072666;28;20032;-77
2021/12/25 11:27:02;;;;;;;35.55;21.55;;;282.20;2278.40;;;;;;5057890;28;20389;-80
2021/12/25 11:29:31;;;;;;;24.27;14.68;;;282.10;2278.40;;;;;;5078836;28;20028;-79
2021/12/25 11:31:57;;;;;;;35.80;18.70;;;282.20;2278.40;;;;;;5079698;28;20013;-84
2021/12/25 11:34:27;;;;;;;50.90;25.98;;;282.20;2278.40;;;;;;5083321;28;20020;-83
2021/12/25 11:36:55;;;;;;;43.47;24.63;;;282.20;2278.40;;;;;;5077184;28;20021;-81
2021/12/25 11:39:24;;;;;;;44.85;25.83;;;282.30;2278.40;;;;;;5080895;28;20024;-75
2021/12/25 11:41:55;;;;;;;52.70;24.38;;;282.50;2278.40;;;;;;5075557;28;20028;-77
2021/12/25 11:44:44;;;;;;;35.45;20.17;;;282.20;2278.40;;;;;;5055366;28;20131;-76
2021/12/25 11:47:33;;;;;;;37.75;22.30;;;282.20;2278.40;;;;;;5059356;28;20024;-77
2021/12/25 11:50:02;;;;;;;55.25;29.00;;;282.10;2278.40;;;;;;5074949;28;20495;-75
2021/12/25 11:52:39;;;;;;;36.47;20.85;;;282.00;2278.40;;;;;;5075068;28;20138;-78
2021/12/25 11:56:16;;;;;;;;;;;282.10;2278.40;;;;;;5065123;28;20024;-77
2021/12/25 11:58:42;;;;;;;49.03;26.20;;;282.10;2278.40;;;;;;5061141;28;19946;-76
2021/12/25 12:01:23;;;;;;;34.58;22.42;;;282.20;2278.40;;;;;;5054605;28;20648;-76
2021/12/25 12:03:55;;;;;;;44.83;29.67;;;282.10;2278.40;;;;;;5084294;28;20028;-77
2021/12/25 12:06:46;;;;;;;37.45;22.20;;;282.20;2278.40;;;;;;5093088;28;20027;-79
2021/12/25 12:09:30;;;;;;;41.30;20.35;;;282.10;2278.40;;;;;;5092784;28;20384;-76
2021/12/25 12:12:22;;;;;;;32.80;21.98;;;282.10;2278.40;;;;;;5074817;28;20024;-81
2021/12/25 12:15:07;;;;;;;34.75;19.25;;;282.30;2278.40;;;;;;5092772;28;20027;-76
2021/12/25 12:17:36;;;;;;;37.03;21.45;;;282.30;2278.40;;;;;;5074960;28;20102;-80
2021/12/25 12:20:04;;;;;;;39.20;22.95;;;282.10;2278.40;;;;;;5069727;28;20055;-76
2021/12/25 12:27:58;;;;;;;41.67;25.13;;;282.10;2278.40;;;;;;5072081;28;20051;-78
2021/12/25 12:30:38;;;;;;;39.60;23.40;;;282.20;2278.40;;;;;;5059975;28;20483;-80
2021/12/25 12:33:17;;;;;;;38.65;24.60;;;282.20;2278.40;;;;;;5076525;28;20025;-75
2021/12/25 12:35:47;;;;;;;45.20;25.25;;;282.30;2278.40;;;;;;5076148;28;20081;-81
2021/12/25 12:38:38;;;;;;;45.15;25.45;;;282.30;2278.40;;;;;;5081779;28;20037;-75
2021/12/25 12:41:19;;;;;;;51.75;26.73;;;282.20;2278.40;;;;;;5080758;28;20012;-77
2021/12/25 12:44:07;;;;;;;42.10;25.08;;;282.00;2278.40;;;;;;5078949;28;20016;-75
2021/12/25 12:46:48;;;;;;;50.35;27.75;;;282.00;2278.40;;;;;;5067397;28;20052;-77
2021/12/25 12:49:22;;;;;;;43.35;25.80;;;282.00;2048.00;;;;;;5080162;28;20113;-77
2021/12/25 12:52:20;;;;;;;45.13;25.92;;;282.00;2278.40;;;;;;5059771;28;20121;-83
2021/12/25 12:54:49;;;;;;;50.03;28.63;;;282.00;2278.40;;;;;;4974378;28;20034;-86
2021/12/25 12:57:20;;;;;;;46.22;27.00;;;282.10;1996.80;;;;;;4990462;28;20053;-82
2021/12/25 12:59:52;;;;;;;62.47;34.83;;;282.10;2278.40;;;;;;4990925;28;20046;-82
2021/12/25 13:02:20;;;;;;;73.78;39.80;;;282.20;2278.40;;;;;;4984887;28;20031;-82
2021/12/25 13:04:56;;;;;;;59.80;35.40;;;282.30;2278.40;;;;;;4994432;28;20046;-84
2021/12/25 13:07:22;;;;;;;;;;;282.30;2278.40;;;;;;4986933;28;20422;-78
2021/12/25 13:10:08;;;;;;;49.42;29.48;;;282.40;2278.40;;;;;;4993207;28;19925;-76
2021/12/25 13:12:42;;;;;;;60.03;33.58;;;282.50;2278.40;;;;;;4992912;28;20031;-84
2021/12/25 13:15:14;;;;;;;65.95;39.15;;;282.50;2278.40;;;;;;4991841;28;20122;-78
2021/12/25 13:18:06;;;;;;;59.30;36.05;;;307.20;2304.00;;;;;;4976311;28;20377;-77
2021/12/25 13:20:51;;;;;;;47.55;32.22;;;307.30;2304.00;;;;;;4989999;28;20058;-77
2021/12/25 13:23:19;;;;;;;50.30;26.42;;;307.20;2304.00;;;;;;4981418;28;20030;-76
2021/12/25 13:25:57;;;;;;;53.40;31.40;;;307.30;2304.00;;;;;;4992577;28;20030;-77
2021/12/25 13:28:24;;;;;;;48.28;33.95;;;307.30;2304.00;;;;;;4989778;28;20062;-76
2021/12/25 13:30:53;;;;;;;33.75;23.80;;;307.30;2304.00;;;;;;5004509;28;20029;-75
2021/12/25 13:33:23;;;;;;;45.15;26.42;;;307.30;2304.00;;;;;;5086373;28;20038;-79
2021/12/25 13:35:59;;;;;;;35.42;22.45;;;282.50;2278.40;;;;;;5094737;28;20732;-76
2021/12/25 13:38:25;;;;;;;56.97;29.38;;;282.50;2278.40;;;;;;5075957;28;20036;-75
2021/12/25 13:40:53;;;;;;;46.67;25.98;;;307.20;2304.00;;;;;;5094287;28;20036;-79
2021/12/25 13:43:19;;;;;;;43.15;25.42;;;307.20;2304.00;;;;;;5095213;28;20069;-77
2021/12/25 13:45:45;;;;;;;43.28;26.75;;;307.20;2304.00;;;;;;5095279;28;20020;-76
2021/12/25 13:48:11;;;;;;;47.85;28.60;;;307.30;2304.00;;;;;;5093669;28;20105;-76